sensor_id;sensor_type;location;lat;lon;timestamp;pressure;altitude;pressure_sealevel;temperature;humidity
68199;BME280;55021;51.554;17.044;2024-01-15T00:12:56;98613.69;;;0.97;100.00
68199;BME280;55021;51.554;17.044;2024-01-15T00:27:59;98539.22;;;1.48;100.00
68199;BME280;55021;51.554;17.044;2024-01-15T00:43:01;98515.47;;;1.27;100.00
68199;BME280;55021;51.554;17.044;2024-01-15T00:58:04;98563.78;;;1.07;100.00
68199;BME280;55021;51.554;17.044;2024-01-15T01:13:06;98543.34;;;0.24;100.00
68199;BME280;55021;51.554;17.044;2024-01-15T01:28:09;98438.56;;;0.24;100.00
68199;BME280;55021;51.554;17.044;2024-01-15T01:43:11;98498.16;;;0.69;100.00
68199;BME280;55021;51.554;17.044;2024-01-15T01:58:13;98499.34;;;0.20;100.00
68199;BME280;55021;51.554;17.044;2024-01-15T02:13:17;98458.94;;;-0.31;100.00
68199;BME280;55021;51.554;17.044;2024-01-15T02:28:20;98461.63;;;0.42;100.00
68199;BME280;55021;51.554;17.044;2024-01-15T02:43:23;98447.66;;;1.38;100.00
68199;BME280;55021;51.554;17.044;2024-01-15T02:58:25;98418.56;;;0.47;100.00
68199;BME280;55021;51.554;17.044;2024-01-15T03:13:27;98407.06;;;0.19;100.00
68199;BME280;55021;51.554;17.044;2024-01-15T03:28:29;98399.25;;;0.35;100.00
68199;BME280;55021;51.554;17.044;2024-01-15T03:43:31;98378.81;;;0.26;100.00
68199;BME280;55021;51.554;17.044;2024-01-15T03:58:34;98360.84;;;0.55;100.00
68199;BME280;55021;51.554;17.044;2024-01-15T04:13:37;98298.75;;;0.45;100.00
68199;BME280;55021;51.554;17.044;2024-01-15T04:28:39;98289.25;;;0.60;100.00
68199;BME280;55021;51.554;17.044;2024-01-15T04:43:41;98318.91;;;1.01;100.00
68199;BME280;55021;51.554;17.044;2024-01-15T04:58:44;98298.97;;;0.34;100.00
68199;BME280;55021;51.554;17.044;2024-01-15T05:13:46;98317.03;;;-0.05;100.00
68199;BME280;55021;51.554;17.044;2024-01-15T05:28:48;98276.28;;;-0.42;100.00
68199;BME280;55021;51.554;17.044;2024-01-15T05:43:50;98321.53;;;-0.05;100.00
68199;BME280;55021;51.554;17.044;2024-01-15T05:58:53;98341.19;;;0.11;100.00
68199;BME280;55021;51.554;17.044;2024-01-15T06:13:55;98347.41;;;0.02;100.00
68199;BME280;55021;51.554;17.044;2024-01-15T06:28:57;98331.06;;;-0.12;100.00
68199;BME280;55021;51.554;17.044;2024-01-15T06:44:00;98348.06;;;0.32;100.00
68199;BME280;55021;51.554;17.044;2024-01-15T06:59:02;98347.13;;;0.05;100.00
68199;BME280;55021;51.554;17.044;2024-01-15T07:14:05;98366.53;;;1.31;100.00
68199;BME280;55021;51.554;17.044;2024-01-15T07:29:07;98354.28;;;1.03;100.00
68199;BME280;55021;51.554;17.044;2024-01-15T07:44:10;98357.63;;;0.69;100.00
68199;BME280;55021;51.554;17.044;2024-01-15T07:59:12;98363.28;;;1.02;99.68
68199;BME280;55021;51.554;17.044;2024-01-15T08:14:14;98349.63;;;0.69;99.32
68199;BME280;55021;51.554;17.044;2024-01-15T08:29:16;98354.66;;;0.55;98.77
68199;BME280;55021;51.554;17.044;2024-01-15T08:44:18;98355.50;;;0.73;97.66
68199;BME280;55021;51.554;17.044;2024-01-15T08:59:21;98370.59;;;0.82;97.53
68199;BME280;55021;51.554;17.044;2024-01-15T09:14:23;98368.47;;;0.68;97.44
68199;BME280;55021;51.554;17.044;2024-01-15T09:29:25;98359.63;;;1.03;93.39
68199;BME280;55021;51.554;17.044;2024-01-15T09:44:28;98326.84;;;1.10;91.23
68199;BME280;55021;51.554;17.044;2024-01-15T09:59:32;98300.81;;;1.64;87.54
68199;BME280;55021;51.554;17.044;2024-01-15T10:14:35;98328.22;;;1.40;87.67
68199;BME280;55021;51.554;17.044;2024-01-15T10:29:37;98321.84;;;1.59;87.97
68199;BME280;55021;51.554;17.044;2024-01-15T10:44:40;98337.16;;;1.31;89.26
68199;BME280;55021;51.554;17.044;2024-01-15T10:59:43;98299.69;;;1.15;88.35
68199;BME280;55021;51.554;17.044;2024-01-15T11:14:47;98294.25;;;1.50;86.02
68199;BME280;55021;51.554;17.044;2024-01-15T11:30:02;98279.44;;;1.97;84.06
68199;BME280;55021;51.554;17.044;2024-01-15T11:45:05;98302.03;;;2.03;81.64
68199;BME280;55021;51.554;17.044;2024-01-15T12:15:41;98303.56;;;1.80;84.99
68199;BME280;55021;51.554;17.044;2024-01-15T12:30:46;98310.19;;;2.02;83.77
68199;BME280;55021;51.554;17.044;2024-01-15T12:45:49;98302.41;;;1.23;86.79
68199;BME280;55021;51.554;17.044;2024-01-15T13:00:52;98302.91;;;1.18;86.67
68199;BME280;55021;51.554;17.044;2024-01-15T13:15:55;98290.06;;;1.48;86.45
68199;BME280;55021;51.554;17.044;2024-01-15T13:30:57;98282.81;;;1.32;87.44
68199;BME280;55021;51.554;17.044;2024-01-15T13:46:01;98277.38;;;1.16;87.27
68199;BME280;55021;51.554;17.044;2024-01-15T14:01:06;98268.47;;;0.90;87.94
68199;BME280;55021;51.554;17.044;2024-01-15T14:16:09;98269.94;;;1.61;84.08
68199;BME280;55021;51.554;17.044;2024-01-15T14:31:12;98266.28;;;1.62;83.05
68199;BME280;55021;51.554;17.044;2024-01-15T14:46:14;98311.47;;;1.30;85.56
68199;BME280;55021;51.554;17.044;2024-01-15T15:01:16;98326.84;;;1.10;85.60
68199;BME280;55021;51.554;17.044;2024-01-15T15:16:18;98350.09;;;1.18;85.85
68199;BME280;55021;51.554;17.044;2024-01-15T15:31:20;98355.94;;;1.21;88.12
68199;BME280;55021;51.554;17.044;2024-01-15T15:46:23;98356.03;;;0.94;88.80
68199;BME280;55021;51.554;17.044;2024-01-15T16:01:25;98377.06;;;1.15;88.27
68199;BME280;55021;51.554;17.044;2024-01-15T16:16:28;98404.47;;;0.99;92.92
68199;BME280;55021;51.554;17.044;2024-01-15T16:31:30;98421.03;;;0.75;96.23
68199;BME280;55021;51.554;17.044;2024-01-15T16:46:32;98440.63;;;0.84;97.64
68199;BME280;55021;51.554;17.044;2024-01-15T17:01:37;98427.81;;;0.43;98.35
68199;BME280;55021;51.554;17.044;2024-01-15T17:16:39;98479.06;;;1.09;98.49
68199;BME280;55021;51.554;17.044;2024-01-15T17:31:42;98488.16;;;0.71;100.00
68199;BME280;55021;51.554;17.044;2024-01-15T17:46:44;98501.19;;;0.47;100.00
68199;BME280;55021;51.554;17.044;2024-01-15T18:01:46;98498.13;;;0.42;100.00
68199;BME280;55021;51.554;17.044;2024-01-15T18:16:48;98523.03;;;0.60;100.00
68199;BME280;55021;51.554;17.044;2024-01-15T18:31:51;98510.63;;;0.41;100.00
68199;BME280;55021;51.554;17.044;2024-01-15T18:46:53;98569.31;;;0.59;100.00
68199;BME280;55021;51.554;17.044;2024-01-15T19:01:56;98593.88;;;0.06;100.00
68199;BME280;55021;51.554;17.044;2024-01-15T19:16:58;98608.78;;;0.46;100.00
68199;BME280;55021;51.554;17.044;2024-01-15T19:32:00;98631.13;;;0.35;100.00
68199;BME280;55021;51.554;17.044;2024-01-15T19:47:03;98658.50;;;0.28;100.00
68199;BME280;55021;51.554;17.044;2024-01-15T20:02:06;98681.91;;;0.14;100.00
68199;BME280;55021;51.554;17.044;2024-01-15T20:17:09;98697.88;;;-0.14;100.00
68199;BME280;55021;51.554;17.044;2024-01-15T20:32:11;98726.22;;;0.06;100.00
68199;BME280;55021;51.554;17.044;2024-01-15T20:47:13;98755.91;;;-0.08;100.00
68199;BME280;55021;51.554;17.044;2024-01-15T21:02:16;98777.00;;;0.33;100.00
68199;BME280;55021;51.554;17.044;2024-01-15T21:17:21;98735.59;;;0.10;100.00
68199;BME280;55021;51.554;17.044;2024-01-15T21:32:42;98805.59;;;1.08;90.65
68199;BME280;55021;51.554;17.044;2024-01-15T21:47:44;98849.88;;;0.03;96.93
68199;BME280;55021;51.554;17.044;2024-01-15T22:02:46;98858.78;;;0.33;95.62
68199;BME280;55021;51.554;17.044;2024-01-15T22:17:48;98879.81;;;-0.44;96.75
68199;BME280;55021;51.554;17.044;2024-01-15T22:32:51;98889.66;;;-0.56;93.56
68199;BME280;55021;51.554;17.044;2024-01-15T22:47:53;98914.59;;;-0.06;90.21
68199;BME280;55021;51.554;17.044;2024-01-15T23:02:55;98930.25;;;0.08;87.38
68199;BME280;55021;51.554;17.044;2024-01-15T23:17:57;98935.06;;;0.64;84.43
68199;BME280;55021;51.554;17.044;2024-01-15T23:33:03;98952.88;;;-0.48;86.88
68199;BME280;55021;51.554;17.044;2024-01-15T23:48:05;98968.88;;;-1.01;86.42
